createdAt,value
2018-03-06T00:00:48.718Z,66.3
2018-03-06T00:01:48.724Z,65.87
2018-03-06T00:02:48.739Z,65.97
2018-03-06T00:03:48.729Z,65.9
2018-03-06T00:04:48.733Z,66.21
2018-03-06T00:05:48.721Z,66.06
2018-03-06T00:06:48.723Z,66
2018-03-06T00:07:48.718Z,66.71
2018-03-06T00:08:49.032Z,66.5
2018-03-06T00:09:48.716Z,65.81
2018-03-06T00:10:48.723Z,66.29
2018-03-06T00:11:48.725Z,66.46
2018-03-06T00:12:48.731Z,66.36
2018-03-06T00:13:48.755Z,66.09
2018-03-06T00:14:48.729Z,66.04
2018-03-06T00:15:48.732Z,65.94
2018-03-06T00:16:48.773Z,66.09
2018-03-06T00:17:48.740Z,66.15
2018-03-06T00:18:48.768Z,66.14
2018-03-06T00:19:48.752Z,65.94
2018-03-06T00:20:48.757Z,66.14
2018-03-06T00:21:49.957Z,66.25
2018-03-06T00:22:49.757Z,66.04
2018-03-06T00:23:48.805Z,66.23
2018-03-06T00:24:48.787Z,66.17
2018-03-06T00:25:48.766Z,65.66
2018-03-06T00:26:48.773Z,66.08
2018-03-06T00:27:48.782Z,66.31
2018-03-06T00:28:48.775Z,65.78
2018-03-06T00:29:48.780Z,65.61
2018-03-06T00:30:48.787Z,65.47
2018-03-06T00:31:48.791Z,65.55
2018-03-06T00:32:48.790Z,65.93
2018-03-06T00:33:48.821Z,66.03
2018-03-06T00:34:48.799Z,65.5
2018-03-06T00:35:48.801Z,65.79
2018-03-06T00:36:48.807Z,65.58
2018-03-06T00:37:48.823Z,66.02
2018-03-06T00:38:48.822Z,65.72
2018-03-06T00:39:48.847Z,65.61
2018-03-06T00:40:48.828Z,65.95
2018-03-06T00:41:48.831Z,65.6
2018-03-06T00:42:48.832Z,65.63
2018-03-06T00:43:48.843Z,65.5
2018-03-06T00:44:48.839Z,65.49
2018-03-06T00:45:48.842Z,65.83
2018-03-06T00:46:48.843Z,65.48
2018-03-06T00:47:48.849Z,65.63
2018-03-06T00:48:49.141Z,65.85
2018-03-06T00:49:48.852Z,65.88
2018-03-06T00:50:48.850Z,65.81
2018-03-06T00:51:48.857Z,65.66
2018-03-06T00:52:48.850Z,66.21
2018-03-06T00:53:48.868Z,66.2
2018-03-06T00:54:48.862Z,66.25
2018-03-06T00:55:48.855Z,66.27
2018-03-06T00:56:48.859Z,65.71
2018-03-06T00:57:48.862Z,66.04
2018-03-06T00:58:49.580Z,66.34
2018-03-06T00:59:49.140Z,66.12
2018-03-06T01:00:48.869Z,65.96
2018-03-06T01:01:48.884Z,66.07
2018-03-06T01:02:48.880Z,66.28
2018-03-06T01:03:48.886Z,66.05
2018-03-06T01:04:48.905Z,66.28
2018-03-06T01:05:48.891Z,66.11
2018-03-06T01:06:48.941Z,65.96
2018-03-06T01:07:48.909Z,66.43
2018-03-06T01:08:48.892Z,66.34
2018-03-06T01:09:48.895Z,66.32
2018-03-06T01:10:48.905Z,65.82
2018-03-06T01:11:48.915Z,65.81
2018-03-06T01:12:48.906Z,66.08
2018-03-06T01:13:48.910Z,65.98
2018-03-06T01:14:48.913Z,65.97
2018-03-06T01:15:48.916Z,65.81
2018-03-06T01:16:48.924Z,66.29
2018-03-06T01:17:48.971Z,66.06
2018-03-06T01:18:48.922Z,65.96
2018-03-06T01:19:48.946Z,65.99
2018-03-06T01:20:48.930Z,66.06
2018-03-06T01:21:48.932Z,66.33
2018-03-06T01:22:48.929Z,66.1
2018-03-06T01:23:48.933Z,66.25
2018-03-06T01:24:48.959Z,66.36
2018-03-06T01:25:48.940Z,66.22
2018-03-06T01:26:48.949Z,66.06
2018-03-06T01:27:48.972Z,66.45
2018-03-06T01:28:48.952Z,66.44
2018-03-06T01:29:48.964Z,66.47
2018-03-06T01:30:49.760Z,66.51
2018-03-06T01:31:48.965Z,66.36
2018-03-06T01:32:48.969Z,66.08
2018-03-06T01:33:48.966Z,66.43
2018-03-06T01:34:48.972Z,66.15
2018-03-06T01:35:48.971Z,66.43
2018-03-06T01:36:48.977Z,66.05
2018-03-06T01:37:49.140Z,66.13
2018-03-06T01:38:48.981Z,66.41
2018-03-06T01:39:48.983Z,66.2
2018-03-06T01:40:48.989Z,66.42
2018-03-06T01:41:48.990Z,66.31
2018-03-06T01:44:50.880Z,66.56
2018-03-06T01:45:49.518Z,66.42
2018-03-06T01:46:50.292Z,66.61
2018-03-06T01:47:49.116Z,66.62
2018-03-06T01:48:50.164Z,66.76
2018-03-06T01:49:50.303Z,66.62
2018-03-06T01:50:50.220Z,66.75
2018-03-06T01:52:14.622Z,66.53
2018-03-06T01:53:19.304Z,67.04
2018-03-06T01:59:07.775Z,67.34
2018-03-06T02:00:04.101Z,67.01
2018-03-06T02:01:05.793Z,67.21
2018-03-06T02:02:02.085Z,67.18
2018-03-06T02:03:01.801Z,67.42
2018-03-06T02:04:01.949Z,67.31
2018-03-06T02:05:02.902Z,67.44
2018-03-06T02:06:03.900Z,67.69
2018-03-06T02:08:04.278Z,67.77
2018-03-06T02:09:01.392Z,67.65
2018-03-06T02:10:02.359Z,67.47
2018-03-06T02:11:09.312Z,67.68
2018-03-06T02:12:02.026Z,67.7
2018-03-06T02:13:02.857Z,67.65
2018-03-06T02:14:01.335Z,67.72
2018-03-06T02:15:05.898Z,67.71
2018-03-06T02:17:01.786Z,67.58
2018-03-06T02:18:01.995Z,67.88
2018-03-06T02:19:09.584Z,67.94
2018-03-06T02:20:04.387Z,67.68
2018-03-06T02:21:02.219Z,67.77
2018-03-06T02:23:02.834Z,67.77
2018-03-06T02:24:01.191Z,67.74
2018-03-06T02:35:25.585Z,67.73
2018-03-06T02:36:24.385Z,68.18
2018-03-06T02:37:31.779Z,67.89
2018-03-06T02:38:23.885Z,68.19
2018-03-06T02:39:23.594Z,67.68
2018-03-06T02:40:22.446Z,67.83
2018-03-06T02:41:22.451Z,67.96
2018-03-06T02:42:22.456Z,68.19
2018-03-06T02:43:22.451Z,67.85
2018-03-06T02:44:22.758Z,67.98
2018-03-06T02:45:22.459Z,68.1
2018-03-06T02:46:22.458Z,67.96
2018-03-06T02:47:22.462Z,67.7
2018-03-06T02:48:22.467Z,67.66
2018-03-06T02:49:22.492Z,67.85
2018-03-06T02:50:22.475Z,68.02
2018-03-06T02:51:22.477Z,67.55
2018-03-06T02:52:22.483Z,67.91
2018-03-06T02:53:22.489Z,68.03
2018-03-06T02:54:22.485Z,68.08
2018-03-06T02:55:22.488Z,68.05
2018-03-06T02:56:22.488Z,68.24
2018-03-06T02:57:22.493Z,68.26
2018-03-06T02:58:22.499Z,68.24
2018-03-06T02:59:22.497Z,68.38
2018-03-06T03:00:22.502Z,68.24
2018-03-06T03:01:22.532Z,68.23
2018-03-06T03:02:22.507Z,68.37
2018-03-06T03:03:22.514Z,68.24
2018-03-06T03:04:22.517Z,68.06
2018-03-06T03:05:22.517Z,68.06
2018-03-06T03:06:22.532Z,68.11
2018-03-06T03:07:22.541Z,68.23
2018-03-06T03:08:22.538Z,68.2
2018-03-06T03:09:22.541Z,68.13
2018-03-06T03:10:22.550Z,68.26
2018-03-06T03:11:22.543Z,67.95
2018-03-06T03:12:22.547Z,68.18
2018-03-06T03:13:22.578Z,68.18
2018-03-06T03:14:22.563Z,68.35
2018-03-06T03:15:22.567Z,68.35
2018-03-06T03:16:22.738Z,68.54
2018-03-06T03:17:22.582Z,68.51
2018-03-06T03:18:22.573Z,68.75
2018-03-06T03:19:22.583Z,68.7
2018-03-06T03:20:22.574Z,68.53
2018-03-06T03:21:22.872Z,68.54
2018-03-06T03:22:22.585Z,68.52
2018-03-06T03:23:22.646Z,68.27
2018-03-06T03:24:22.599Z,68.47
2018-03-06T03:25:22.582Z,68.43
2018-03-06T03:26:22.613Z,68.68
2018-03-06T03:27:22.593Z,68.95
2018-03-06T03:28:22.603Z,68.82
2018-03-06T03:29:22.598Z,68.64
2018-03-06T03:30:22.603Z,68.82
2018-03-06T03:31:22.606Z,68.76
2018-03-06T03:32:22.852Z,68.91
2018-03-06T03:33:22.619Z,68.96
2018-03-06T03:34:22.615Z,68.82
2018-03-06T03:35:22.621Z,68.7
2018-03-06T03:36:22.629Z,68.86
2018-03-06T03:37:22.656Z,69.07
2018-03-06T03:38:22.639Z,69.31
2018-03-06T03:39:22.641Z,69.31
2018-03-06T03:40:22.638Z,69.35
2018-03-06T03:41:22.642Z,69.62
2018-03-06T03:42:22.699Z,69.63
2018-03-06T03:43:22.655Z,69.66
2018-03-06T03:44:22.649Z,69.94
2018-03-06T03:45:22.653Z,69.95
2018-03-06T03:46:22.660Z,69.69
2018-03-06T03:47:22.664Z,69.69
2018-03-06T03:48:22.666Z,69.66
2018-03-06T03:49:22.662Z,69.84
2018-03-06T03:50:22.929Z,69.94
2018-03-06T03:51:22.674Z,70.29
2018-03-06T03:52:22.684Z,70.19
2018-03-06T03:53:22.695Z,70.33
2018-03-06T03:54:22.692Z,70.27
2018-03-06T03:55:23.001Z,70.28
2018-03-06T03:56:22.698Z,70.38
2018-03-06T03:57:22.698Z,70.22
2018-03-06T03:58:22.700Z,70.29
2018-03-06T03:59:22.702Z,70.4
2018-03-06T04:00:22.727Z,70.42
2018-03-06T04:01:22.712Z,70.61
2018-03-06T04:02:22.713Z,70.88
2018-03-06T04:03:22.716Z,70.87
2018-03-06T04:04:22.728Z,70.95
2018-03-06T04:05:22.724Z,71.14
2018-03-06T04:06:22.742Z,70.9
2018-03-06T04:07:22.726Z,70.92
2018-03-06T04:08:22.741Z,71.1
2018-03-06T04:09:22.746Z,70.94
2018-03-06T04:10:22.749Z,71.09
2018-03-06T04:11:22.769Z,71.27
2018-03-06T04:12:22.742Z,71.39
2018-03-06T04:13:22.744Z,71.17
2018-03-06T04:14:22.753Z,71.58
2018-03-06T04:15:22.750Z,71.54
2018-03-06T04:16:22.774Z,71.62
2018-03-06T04:17:22.751Z,71.75
2018-03-06T04:18:22.757Z,71.73
2018-03-06T04:19:22.760Z,71.84
2018-03-06T04:20:22.764Z,71.77
2018-03-06T04:21:22.769Z,72
2018-03-06T04:22:22.796Z,72.17
2018-03-06T04:23:22.785Z,72.12
2018-03-06T04:24:22.798Z,72.02
2018-03-06T04:25:22.784Z,72.09
2018-03-06T04:26:22.792Z,72.03
2018-03-06T04:27:22.818Z,72.33
2018-03-06T04:28:22.803Z,72.34
2018-03-06T04:29:22.810Z,72.41
2018-03-06T04:30:22.812Z,72.18
2018-03-06T04:31:22.814Z,72.43
2018-03-06T04:32:22.824Z,72.47
2018-03-06T04:33:22.830Z,72.5
2018-03-06T04:34:22.827Z,72.31
2018-03-06T04:35:22.836Z,72.35
2018-03-06T04:36:22.827Z,72.34
2018-03-06T04:37:22.838Z,72.49
2018-03-06T04:38:22.845Z,72.25
2018-03-06T04:39:22.851Z,72.36
2018-03-06T04:40:22.850Z,72.17
2018-03-06T04:41:22.858Z,72.42
2018-03-06T04:42:22.860Z,72.51
2018-03-06T04:43:22.891Z,72.62
2018-03-06T04:44:22.884Z,72.56
2018-03-06T04:45:22.891Z,72.49
2018-03-06T04:46:22.879Z,72.29
2018-03-06T04:47:22.878Z,72.36
2018-03-06T04:48:22.886Z,72.48
2018-03-06T04:49:22.887Z,72.38
2018-03-06T04:50:22.885Z,72.47
2018-03-06T04:51:22.891Z,72.23
2018-03-06T04:52:22.893Z,72.51
2018-03-06T04:53:22.893Z,72.55
2018-03-06T04:54:22.899Z,72.53
2018-03-06T04:55:22.898Z,72.11
2018-03-06T04:56:22.905Z,72.34
2018-03-06T04:57:22.906Z,72.21
2018-03-06T04:58:22.928Z,71.95
2018-03-06T04:59:22.909Z,72.1
2018-03-06T05:00:22.918Z,72.24
2018-03-06T05:01:22.916Z,72.08
2018-03-06T05:02:22.918Z,72.2
2018-03-06T05:03:22.939Z,71.98
2018-03-06T05:04:22.924Z,72.3
2018-03-06T05:05:22.933Z,72.44
2018-03-06T05:06:22.932Z,72.13
2018-03-06T05:07:22.925Z,72.38
2018-03-06T05:08:22.946Z,72.24
2018-03-06T05:09:22.926Z,72.04
2018-03-06T05:10:22.935Z,72.47
2018-03-06T05:11:22.945Z,72.22
2018-03-06T05:12:22.941Z,71.97
2018-03-06T05:13:22.962Z,72.01
2018-03-06T05:14:22.948Z,71.68
2018-03-06T05:15:22.953Z,71.62
2018-03-06T05:16:22.960Z,71.73
2018-03-06T05:17:22.960Z,71.88
2018-03-06T05:18:22.960Z,72.15
2018-03-06T05:19:22.973Z,72.21
2018-03-06T05:20:22.965Z,72.02
2018-03-06T05:21:22.968Z,71.96
2018-03-06T05:22:22.991Z,72.04
2018-03-06T05:23:22.978Z,71.92
2018-03-06T05:24:23.260Z,71.74
2018-03-06T05:25:22.991Z,71.96
2018-03-06T05:26:22.993Z,71.87
2018-03-06T05:27:22.995Z,71.78
2018-03-06T05:28:22.996Z,71.9
2018-03-06T05:29:23.051Z,71.83
2018-03-06T05:30:22.996Z,71.91
2018-03-06T05:31:23.001Z,71.99
2018-03-06T05:32:23.009Z,71.77
2018-03-06T05:33:23.016Z,72.32
2018-03-06T05:34:23.027Z,72.28
2018-03-06T05:35:23.008Z,72.22
2018-03-06T05:36:23.011Z,71.8
2018-03-06T05:37:23.009Z,71.95
2018-03-06T05:38:23.011Z,71.89
2018-03-06T05:39:23.017Z,72.22
2018-03-06T05:40:23.022Z,71.87
2018-03-06T05:41:23.035Z,71.98
2018-03-06T05:42:23.033Z,72.16
2018-03-06T05:43:23.037Z,72.19
2018-03-06T05:44:23.068Z,72.19
2018-03-06T05:45:23.067Z,72.3
2018-03-06T05:46:23.035Z,72.17
2018-03-06T05:47:23.078Z,71.98
2018-03-06T05:48:23.051Z,72
2018-03-06T05:49:23.050Z,71.81
2018-03-06T05:50:23.051Z,71.84
2018-03-06T05:51:23.067Z,71.95
2018-03-06T05:52:23.053Z,72.32
2018-03-06T05:53:23.052Z,72.36
2018-03-06T05:54:23.070Z,72.38
2018-03-06T05:55:23.072Z,72.38
2018-03-06T05:56:23.075Z,72.83
2018-03-06T05:57:23.083Z,72.5
2018-03-06T05:58:23.085Z,72.51
2018-03-06T05:59:23.092Z,72.51
2018-03-06T06:00:23.101Z,72.26
2018-03-06T06:01:23.107Z,72.21
2018-03-06T06:02:23.380Z,72.18
2018-03-06T06:03:23.106Z,72.13
2018-03-06T06:04:23.146Z,72.36
2018-03-06T06:05:23.111Z,71.92
2018-03-06T06:06:23.115Z,72.09
2018-03-06T06:07:23.144Z,71.79
2018-03-06T06:08:23.130Z,72.13
2018-03-06T06:09:23.134Z,72.04
2018-03-06T06:10:23.139Z,71.94
2018-03-06T06:11:23.136Z,71.91
2018-03-06T06:12:23.158Z,71.78
2018-03-06T06:13:23.147Z,71.93
2018-03-06T06:14:23.146Z,71.82
2018-03-06T06:15:23.150Z,72
2018-03-06T06:16:23.149Z,71.98
2018-03-06T06:17:23.173Z,71.98
2018-03-06T06:18:23.163Z,72.29
2018-03-06T06:19:23.158Z,72.37
2018-03-06T06:20:23.164Z,72.56
2018-03-06T06:21:23.191Z,72.25
2018-03-06T06:22:23.163Z,72.44
2018-03-06T06:23:23.173Z,72.29
2018-03-06T06:24:23.184Z,72.46
2018-03-06T06:25:23.179Z,72.34
2018-03-06T06:26:23.187Z,72.37
2018-03-06T06:27:23.169Z,72.62
2018-03-06T06:28:23.180Z,72.26
2018-03-06T06:29:23.173Z,71.99
2018-03-06T06:30:23.178Z,71.77
2018-03-06T06:31:23.187Z,72.54
2018-03-06T06:32:23.183Z,72.12
2018-03-06T06:33:23.185Z,72.49
2018-03-06T06:34:23.187Z,72.38
2018-03-06T06:35:23.300Z,72.75
2018-03-06T06:36:23.185Z,72.87
2018-03-06T06:37:23.197Z,72.75
2018-03-06T06:38:23.208Z,72.89
2018-03-06T06:39:23.204Z,72.74
2018-03-06T06:40:23.199Z,72.93
2018-03-06T06:41:23.201Z,72.61
2018-03-06T06:42:23.207Z,72.58
2018-03-06T06:43:23.210Z,72.77
2018-03-06T06:44:23.215Z,72.58
2018-03-06T06:45:23.221Z,72.71
2018-03-06T06:46:23.225Z,72.52
2018-03-06T06:47:23.232Z,72.66
2018-03-06T06:48:23.239Z,73.33
2018-03-06T06:49:23.235Z,73.05
2018-03-06T06:50:23.247Z,73.24
2018-03-06T06:51:23.248Z,73.48
2018-03-06T06:52:23.299Z,73.93
2018-03-06T06:53:23.257Z,74.31
2018-03-06T06:54:23.273Z,74.07
2018-03-06T06:55:23.267Z,74.15
2018-03-06T06:56:23.260Z,74.25
2018-03-06T06:57:23.268Z,74.11
2018-03-06T06:58:23.276Z,74.44
2018-03-06T06:59:23.270Z,74.55
2018-03-06T07:00:23.321Z,74.97
2018-03-06T07:01:23.278Z,75.5
2018-03-06T07:02:23.283Z,76.12
2018-03-06T07:03:23.287Z,76.47
2018-03-06T07:04:23.301Z,76.35
2018-03-06T07:05:23.299Z,75.73
2018-03-06T07:06:23.322Z,75.02
2018-03-06T07:07:23.301Z,75.47
2018-03-06T07:08:23.312Z,75.73
2018-03-06T07:09:23.318Z,75.75
2018-03-06T07:10:23.345Z,75.88
2018-03-06T07:11:23.337Z,76.04
2018-03-06T07:12:23.317Z,76.17
2018-03-06T07:13:23.317Z,76.52
2018-03-06T07:14:23.345Z,76.95
2018-03-06T07:15:23.322Z,77.26
2018-03-06T07:16:23.328Z,77.09
2018-03-06T07:17:23.339Z,76.61
2018-03-06T07:18:23.344Z,76.45
2018-03-06T07:19:23.336Z,76.77
2018-03-06T07:20:23.344Z,76.92
2018-03-06T07:21:23.344Z,77.28
2018-03-06T07:22:23.354Z,77.28
2018-03-06T07:23:23.360Z,77.42
2018-03-06T07:24:23.351Z,77.48
2018-03-06T07:25:23.357Z,77.49
2018-03-06T07:26:23.357Z,77.11
2018-03-06T07:27:23.358Z,77.31
2018-03-06T07:28:23.363Z,77.32
2018-03-06T07:29:23.366Z,76.38
2018-03-06T07:30:23.373Z,76.4
2018-03-06T07:31:23.369Z,76.36
2018-03-06T07:32:23.423Z,76.62
2018-03-06T07:33:23.374Z,76.86
2018-03-06T07:34:23.382Z,76.85
2018-03-06T07:35:23.388Z,76.68
2018-03-06T07:36:23.383Z,76.79
2018-03-06T07:37:23.401Z,76.44
2018-03-06T07:38:23.386Z,76.36
2018-03-06T07:39:23.393Z,76.67
2018-03-06T07:40:23.390Z,76.43
2018-03-06T07:41:23.397Z,76.55
2018-03-06T07:42:23.399Z,76.34
2018-03-06T07:43:23.406Z,76.19
2018-03-06T07:44:23.408Z,76.26
2018-03-06T07:45:23.437Z,75.75
2018-03-06T07:46:23.409Z,75.88
2018-03-06T07:47:23.408Z,75.98
2018-03-06T07:48:23.420Z,75.63
2018-03-06T07:49:23.415Z,76.18
2018-03-06T07:50:23.433Z,75.75
2018-03-06T07:51:23.458Z,75.77
2018-03-06T07:52:23.449Z,75.5
2018-03-06T07:53:23.431Z,75.58
2018-03-06T07:54:23.445Z,75.5
2018-03-06T07:55:23.434Z,75.45
2018-03-06T07:56:23.434Z,74.96
2018-03-06T07:57:23.438Z,74.49
2018-03-06T07:58:23.444Z,74.81
2018-03-06T07:59:23.452Z,74.79
2018-03-06T08:00:23.454Z,74.75
2018-03-06T08:01:23.453Z,74.65
2018-03-06T08:02:23.463Z,74.57
2018-03-06T08:03:23.515Z,74.08
2018-03-06T08:04:23.464Z,74.4
2018-03-06T08:05:23.488Z,74.38
2018-03-06T08:06:23.482Z,74.2
2018-03-06T08:07:23.484Z,73.77
2018-03-06T08:08:23.486Z,74.28
2018-03-06T08:09:23.506Z,73.93
2018-03-06T08:10:23.486Z,73.96
2018-03-06T08:11:23.504Z,74.03
2018-03-06T08:12:23.493Z,74.21
2018-03-06T08:13:23.493Z,73.94
2018-03-06T08:14:23.501Z,74.21
2018-03-06T08:15:23.506Z,74.24
2018-03-06T08:16:23.502Z,73.98
2018-03-06T08:17:23.509Z,73.98
2018-03-06T08:18:23.528Z,74.12
2018-03-06T08:19:23.508Z,73.65
2018-03-06T08:20:23.515Z,73.37
2018-03-06T08:21:23.521Z,73.44
2018-03-06T08:22:23.537Z,73.6
2018-03-06T08:23:23.806Z,73.34
2018-03-06T08:24:23.533Z,73.58
2018-03-06T08:25:23.539Z,73.4
2018-03-06T08:26:23.539Z,73.57
2018-03-06T08:27:23.545Z,73.76
2018-03-06T08:28:23.580Z,74
2018-03-06T08:29:23.565Z,74.36
2018-03-06T08:30:23.558Z,74.03
2018-03-06T08:31:23.563Z,73.76
2018-03-06T08:32:23.564Z,73.59
2018-03-06T08:33:23.583Z,73.86
2018-03-06T08:35:23.568Z,74.28
2018-03-06T08:36:23.580Z,73.92
2018-03-06T08:37:23.571Z,73.95
2018-03-06T08:38:23.581Z,73.76
2018-03-06T08:39:23.585Z,73.81
2018-03-06T08:40:23.580Z,73.89
2018-03-06T08:41:23.601Z,73.76
2018-03-06T08:42:23.591Z,73.31
2018-03-06T08:43:23.595Z,73.15
2018-03-06T08:44:23.599Z,73.47
2018-03-06T08:45:23.599Z,72.74
2018-03-06T08:46:23.624Z,72.79
2018-03-06T08:47:23.602Z,72.84
2018-03-06T08:48:23.612Z,72.64
2018-03-06T08:49:23.619Z,72.58
2018-03-06T08:50:23.630Z,72.35
2018-03-06T08:51:23.661Z,71.94
2018-03-06T08:52:23.637Z,72.35
2018-03-06T08:53:23.633Z,72.16
2018-03-06T08:54:23.638Z,71.96
2018-03-06T08:55:23.632Z,71.93
2018-03-06T08:56:23.666Z,72.11
2018-03-06T08:57:23.641Z,71.53
2018-03-06T08:58:23.649Z,71.49
2018-03-06T08:59:23.670Z,71.26
2018-03-06T09:00:23.661Z,70.33
2018-03-06T09:01:23.718Z,70.67
2018-03-06T09:02:23.673Z,70.56
2018-03-06T09:03:23.666Z,70.36
2018-03-06T09:04:23.675Z,69.88
2018-03-06T09:05:23.679Z,69.59
2018-03-06T09:06:23.683Z,69.81
2018-03-06T09:07:23.684Z,69.44
2018-03-06T09:08:23.691Z,69.42
2018-03-06T09:09:23.691Z,69.67
2018-03-06T09:10:23.725Z,69.58
2018-03-06T09:11:23.702Z,69.3
2018-03-06T09:12:23.694Z,69.12
2018-03-06T09:13:23.756Z,69.06
2018-03-06T09:14:23.701Z,68.95
2018-03-06T09:15:23.701Z,69.04
2018-03-06T09:16:23.706Z,68.72
2018-03-06T09:17:23.737Z,68.95
2018-03-06T09:18:23.711Z,68.99
2018-03-06T09:19:23.712Z,68.72
2018-03-06T09:20:23.716Z,68.34
2018-03-06T09:21:23.720Z,68.83
2018-03-06T09:22:23.742Z,68.4
2018-03-06T09:23:23.720Z,67.42
2018-03-06T09:24:23.750Z,67.5
2018-03-06T09:25:23.732Z,67.9
2018-03-06T09:26:23.726Z,67.47
2018-03-06T09:27:23.752Z,67.44
2018-03-06T09:28:23.739Z,67.75
2018-03-06T09:29:23.733Z,67.3
2018-03-06T09:30:23.735Z,67.07
2018-03-06T09:31:23.752Z,67.36
2018-03-06T09:32:23.765Z,67.1
2018-03-06T09:33:23.751Z,67.2
2018-03-06T09:34:23.742Z,67.06
2018-03-06T09:35:23.768Z,67.15
2018-03-06T09:36:23.755Z,67.63
2018-03-06T09:37:24.021Z,67.27
2018-03-06T09:38:23.755Z,67.31
2018-03-06T09:39:23.759Z,67.11
2018-03-06T09:40:23.767Z,66.03
2018-03-06T09:41:23.765Z,66.04
2018-03-06T09:42:23.796Z,66.4
2018-03-06T09:43:23.764Z,66.15
2018-03-06T09:44:23.760Z,66.24
2018-03-06T09:45:23.774Z,66.65
2018-03-06T09:46:23.771Z,65.93
2018-03-06T09:47:23.792Z,66.32
2018-03-06T09:48:23.774Z,67.02
2018-03-06T09:49:23.776Z,66.17
2018-03-06T09:50:23.796Z,65.66
2018-03-06T09:51:23.781Z,65.68
2018-03-06T09:52:23.824Z,65.71
2018-03-06T09:53:23.938Z,65.33
2018-03-06T09:54:23.791Z,65.38
2018-03-06T09:55:23.787Z,65.51
2018-03-06T09:56:23.855Z,65.48
2018-03-06T09:57:23.814Z,64.82
2018-03-06T09:58:23.798Z,64.44
2018-03-06T09:59:23.806Z,64.99
2018-03-06T10:00:23.815Z,64.42
2018-03-06T10:01:23.810Z,64.8
2018-03-06T10:02:23.833Z,64.52
2018-03-06T10:03:23.803Z,65.44
2018-03-06T10:04:23.830Z,65.26
2018-03-06T10:05:23.808Z,65.15
2018-03-06T10:06:23.820Z,64.71
2018-03-06T10:07:23.816Z,64.48
2018-03-06T10:08:23.825Z,64.86
2018-03-06T10:09:23.818Z,64.63
2018-03-06T10:10:23.821Z,65.02
2018-03-06T10:11:23.835Z,64.93
2018-03-06T10:12:23.833Z,64.3
2018-03-06T10:13:23.845Z,65.45
2018-03-06T10:14:23.869Z,64.05
2018-03-06T10:15:23.839Z,64.45
2018-03-06T10:16:23.843Z,64.74
2018-03-06T10:17:23.845Z,64.16
2018-03-06T10:18:23.853Z,64.2
2018-03-06T10:19:23.905Z,64.01
2018-03-06T10:20:23.848Z,64.32
2018-03-06T10:21:23.849Z,63.38
2018-03-06T10:22:23.852Z,63.57
2018-03-06T10:23:23.866Z,63.14
2018-03-06T10:24:23.899Z,63.38
2018-03-06T10:25:23.866Z,62.39
2018-03-06T10:26:23.863Z,62.19
2018-03-06T10:27:23.881Z,63.04
2018-03-06T10:28:23.865Z,62.94
2018-03-06T10:29:23.895Z,63.15
2018-03-06T10:30:23.879Z,63.03
2018-03-06T10:31:23.881Z,63.34
2018-03-06T10:32:23.894Z,63.09
2018-03-06T10:33:23.891Z,62.84
2018-03-06T10:34:24.146Z,62.96
2018-03-06T10:35:23.993Z,62.54
2018-03-06T10:36:23.895Z,63.08
2018-03-06T10:37:23.899Z,62.21
2018-03-06T10:38:23.902Z,62.82
2018-03-06T10:39:23.933Z,62.44
2018-03-06T10:40:23.921Z,62.56
2018-03-06T10:41:23.922Z,61.13
2018-03-06T10:42:23.916Z,61.91
2018-03-06T10:43:23.941Z,61.21
2018-03-06T10:44:23.943Z,61.26
2018-03-06T10:45:23.932Z,60.95
2018-03-06T10:46:23.944Z,61.96
2018-03-06T10:47:23.993Z,61.34
2018-03-06T10:48:23.950Z,61.91
2018-03-06T10:49:23.957Z,61.82
2018-03-06T10:50:23.955Z,61
2018-03-06T10:51:23.956Z,60.98
2018-03-06T10:52:23.961Z,60.79
2018-03-06T10:53:23.960Z,60.76
2018-03-06T10:54:23.986Z,61.18
2018-03-06T10:55:23.964Z,61.86
2018-03-06T10:56:23.972Z,61.67
2018-03-06T10:57:23.967Z,62.21
2018-03-06T10:58:23.976Z,62.24
2018-03-06T10:59:24.017Z,61.1
2018-03-06T11:00:23.978Z,61.53
2018-03-06T11:01:23.986Z,60.89
2018-03-06T11:02:23.992Z,61.11
2018-03-06T11:03:24.005Z,61.17
2018-03-06T11:04:24.031Z,61.47
2018-03-06T11:05:24.001Z,61.45
2018-03-06T11:06:24.002Z,61.34
2018-03-06T11:07:24.008Z,61.34
2018-03-06T11:08:24.014Z,60.95
2018-03-06T11:09:24.105Z,60.6
2018-03-06T11:10:24.024Z,61.32
2018-03-06T11:11:24.056Z,61.04
2018-03-06T11:12:24.023Z,61.63
2018-03-06T11:13:24.039Z,61.78
2018-03-06T11:14:24.103Z,61.38
2018-03-06T11:15:24.033Z,61.5
2018-03-06T11:16:24.035Z,61.64
2018-03-06T11:17:24.033Z,61.28
2018-03-06T11:18:24.093Z,60.92
2018-03-06T11:19:24.041Z,61.12
2018-03-06T11:20:24.049Z,61.14
2018-03-06T11:21:24.047Z,61.24
2018-03-06T11:22:24.140Z,61.34
2018-03-06T11:23:24.069Z,60.9
2018-03-06T11:24:24.063Z,60.23
2018-03-06T11:25:24.069Z,61.18
2018-03-06T11:26:24.076Z,60.85
2018-03-06T11:27:24.078Z,60.21
2018-03-06T11:28:24.078Z,59.88
2018-03-06T11:29:24.079Z,60.03
2018-03-06T11:30:24.093Z,59.7
2018-03-06T11:31:24.097Z,59.88
2018-03-06T11:32:24.095Z,60.46
2018-03-06T11:33:24.095Z,60.08
2018-03-06T11:34:24.094Z,60.41
2018-03-06T11:35:24.132Z,59.82
2018-03-06T11:36:24.094Z,60.78
2018-03-06T11:37:24.099Z,60.39
2018-03-06T11:38:24.099Z,60.46
2018-03-06T11:39:24.104Z,60.32
2018-03-06T11:40:24.312Z,59.88
2018-03-06T11:41:24.108Z,59.94
2018-03-06T11:42:24.131Z,60.06
2018-03-06T11:43:24.105Z,59.54
2018-03-06T11:44:24.111Z,58.91
2018-03-06T11:45:24.115Z,59.79
2018-03-06T11:46:24.112Z,59.87
2018-03-06T11:47:24.115Z,59.62
2018-03-06T11:48:24.113Z,59.72
2018-03-06T11:49:24.125Z,59.69
2018-03-06T11:50:24.124Z,59.44
2018-03-06T11:51:24.133Z,59.61
2018-03-06T11:52:24.122Z,59.17
2018-03-06T11:53:24.131Z,59.43
2018-03-06T11:54:24.348Z,59.19
2018-03-06T11:55:24.128Z,59.11
2018-03-06T11:56:24.129Z,59.31
2018-03-06T11:57:24.134Z,59.42
2018-03-06T11:58:24.214Z,59.28
2018-03-06T11:59:24.175Z,59.1
2018-03-06T12:00:24.147Z,59.06
2018-03-06T12:01:24.150Z,59.25
2018-03-06T12:02:24.149Z,58.63
2018-03-06T12:03:24.177Z,58.3
2018-03-06T12:04:24.159Z,58.46
2018-03-06T12:05:24.189Z,59.23
2018-03-06T12:06:24.167Z,59.43
2018-03-06T12:07:24.175Z,59.12
2018-03-06T12:08:24.182Z,59.33
2018-03-06T12:09:24.185Z,59.61
2018-03-06T12:10:24.183Z,58.25
2018-03-06T12:11:24.191Z,58.49
2018-03-06T12:12:24.187Z,59
2018-03-06T12:13:24.210Z,59.3
2018-03-06T12:14:24.193Z,59.53
2018-03-06T12:15:24.197Z,59.43
2018-03-06T12:16:24.190Z,59.47
2018-03-06T12:17:24.196Z,59.1
2018-03-06T12:18:24.192Z,58.94
2018-03-06T12:19:24.194Z,58.6
2018-03-06T12:20:24.194Z,59.01
2018-03-06T12:21:24.199Z,59.13
2018-03-06T12:22:24.203Z,58.91
2018-03-06T12:23:24.228Z,59.21
2018-03-06T12:24:24.219Z,59.26
2018-03-06T12:25:24.218Z,59.07
2018-03-06T12:26:24.220Z,59.13
2018-03-06T12:27:24.221Z,58.92
2018-03-06T12:28:24.242Z,58.45
2018-03-06T12:29:24.220Z,57.87
2018-03-06T12:30:24.232Z,58.52
2018-03-06T12:31:24.243Z,58.51
2018-03-06T12:32:24.243Z,58.16
2018-03-06T12:33:24.415Z,58.48
2018-03-06T12:34:24.292Z,58.31
2018-03-06T12:35:24.252Z,58.79
2018-03-06T12:36:24.261Z,58.69
2018-03-06T12:37:24.253Z,57.81
2018-03-06T12:38:24.272Z,58.24
2018-03-06T12:39:24.280Z,58.17
2018-03-06T12:40:24.251Z,58.34
2018-03-06T12:41:24.270Z,58.22
2018-03-06T12:42:24.264Z,58.26
2018-03-06T12:43:24.280Z,58.35
2018-03-06T12:44:24.262Z,58.6
2018-03-06T12:45:24.278Z,58.19
2018-03-06T12:46:24.272Z,57.82
2018-03-06T12:47:24.269Z,57.52
2018-03-06T12:48:24.271Z,57.94
2018-03-06T12:49:24.289Z,57.98
2018-03-06T12:50:24.297Z,57.65
2018-03-06T12:51:24.291Z,57.24
2018-03-06T12:52:24.299Z,57.98
2018-03-06T12:53:24.295Z,58.19
2018-03-06T12:54:24.302Z,57.6
2018-03-06T12:55:24.302Z,57.57
2018-03-06T12:56:24.301Z,58.18
2018-03-06T12:57:24.305Z,58.09
2018-03-06T12:58:24.312Z,58.28
2018-03-06T12:59:24.319Z,58.46
2018-03-06T13:00:24.317Z,58.37
2018-03-06T13:01:24.358Z,58.55
2018-03-06T13:02:24.320Z,58.07
2018-03-06T13:03:24.325Z,58.07
2018-03-06T13:04:24.339Z,58.21
2018-03-06T13:05:24.336Z,58.13
2018-03-06T13:06:24.351Z,58.2
2018-03-06T13:07:24.347Z,57.7
2018-03-06T13:08:24.343Z,58.05
2018-03-06T13:09:24.341Z,58.39
2018-03-06T13:10:24.349Z,58.12
2018-03-06T13:11:24.353Z,58
2018-03-06T13:12:24.360Z,57.43
2018-03-06T13:13:24.369Z,57.61
2018-03-06T13:14:24.387Z,57.49
2018-03-06T13:15:24.369Z,57.42
2018-03-06T13:16:24.372Z,57.49
2018-03-06T13:17:24.379Z,57.36